createdAt,value
2018-07-28T00:00:10.767Z,22.00
2018-07-28T00:05:14.633Z,22.00
2018-07-28T00:10:17.818Z,22.00
2018-07-28T00:15:21.900Z,22.00
2018-07-28T00:20:24.956Z,21.90
2018-07-28T00:25:32.337Z,21.90
2018-07-28T00:30:35.441Z,21.90
2018-07-28T00:35:38.526Z,21.80
2018-07-28T00:40:41.576Z,21.70
2018-07-28T00:45:44.604Z,21.60
2018-07-28T00:50:47.760Z,21.60
2018-07-28T00:55:50.847Z,21.50
2018-07-28T01:00:53.940Z,21.50
2018-07-28T01:05:57.056Z,21.40
2018-07-28T01:11:00.108Z,21.30
2018-07-28T01:16:03.209Z,21.30
2018-07-28T01:21:06.738Z,21.30
2018-07-28T01:26:09.761Z,21.40
2018-07-28T01:36:15.702Z,21.30
2018-07-28T01:41:18.880Z,21.20
2018-07-28T01:46:21.997Z,21.10
2018-07-28T01:51:25.065Z,21.10
2018-07-28T01:56:28.122Z,21.10
2018-07-28T02:01:31.247Z,21.00
2018-07-28T02:11:37.937Z,21.00
2018-07-28T02:16:41.007Z,21.00
2018-07-28T02:21:44.138Z,20.90
2018-07-28T02:26:47.257Z,20.90
2018-07-28T02:31:50.310Z,20.80
2018-07-28T02:36:53.376Z,20.80
2018-07-28T02:41:56.431Z,20.70
2018-07-28T02:46:59.532Z,20.70
2018-07-28T02:52:02.582Z,20.60
2018-07-28T02:57:05.654Z,20.60
2018-07-28T03:02:09.793Z,20.60
2018-07-28T03:07:14.077Z,20.50
2018-07-28T03:12:17.189Z,20.60
2018-07-28T03:17:20.301Z,20.50
2018-07-28T03:22:23.393Z,20.40
2018-07-28T03:27:26.526Z,20.40
2018-07-28T03:32:29.579Z,20.30
2018-07-28T03:37:32.676Z,20.40
2018-07-28T03:42:35.902Z,20.40
2018-07-28T03:47:40.076Z,20.50
2018-07-28T03:52:43.143Z,20.60
2018-07-28T03:57:46.320Z,20.50
2018-07-28T04:07:52.636Z,20.50
2018-07-28T04:17:58.686Z,20.50
2018-07-28T04:23:01.819Z,20.60
2018-07-28T04:28:04.906Z,20.60
2018-07-28T04:33:08.029Z,20.70
2018-07-28T04:38:11.160Z,20.70
2018-07-28T04:43:14.225Z,20.70
2018-07-28T04:48:17.415Z,20.80
2018-07-28T04:53:20.617Z,21.00
2018-07-28T04:58:23.683Z,21.00
2018-07-28T05:03:26.772Z,21.20
2018-07-28T05:08:29.845Z,21.30
2018-07-28T05:13:32.945Z,21.50
2018-07-28T05:18:36.033Z,21.60
2018-07-28T05:23:39.129Z,21.80
2018-07-28T05:28:42.132Z,21.90
2018-07-28T05:38:48.357Z,22.20
2018-07-28T05:43:51.427Z,22.30
2018-07-28T05:48:54.483Z,22.40
2018-07-28T05:53:57.545Z,22.60
2018-07-28T05:59:00.566Z,22.80
2018-07-28T06:04:03.656Z,22.90
2018-07-28T06:09:07.528Z,23.10
2018-07-28T06:14:10.645Z,23.60
2018-07-28T06:19:13.702Z,24.20
2018-07-28T06:24:16.780Z,25.40
2018-07-28T06:29:19.867Z,26.90
2018-07-28T06:34:23.149Z,27.70
2018-07-28T06:39:26.253Z,28.00
2018-07-28T06:44:29.303Z,28.50
2018-07-28T06:49:32.410Z,29.00
2018-07-28T06:54:35.504Z,29.40
2018-07-28T06:59:38.542Z,29.80
2018-07-28T07:04:41.977Z,30.00
2018-07-28T07:09:45.007Z,30.70
2018-07-28T07:14:48.043Z,31.20
2018-07-28T07:19:51.112Z,31.20
2018-07-28T07:24:54.199Z,31.90
2018-07-28T07:29:57.273Z,32.10
2018-07-28T07:35:00.311Z,32.50
2018-07-28T07:40:03.507Z,31.90
2018-07-28T07:45:07.107Z,31.80
2018-07-28T07:50:10.145Z,32.50
2018-07-28T07:55:13.233Z,33.10
2018-07-28T08:00:16.264Z,31.90
2018-07-28T08:05:19.429Z,32.30
2018-07-28T08:10:22.546Z,32.60
2018-07-28T08:15:25.619Z,32.90
2018-07-28T08:20:28.711Z,33.10
2018-07-28T08:25:31.760Z,31.90
2018-07-28T08:30:34.796Z,31.60
2018-07-28T08:35:37.946Z,31.90
2018-07-28T08:40:41.119Z,32.30
2018-07-28T08:45:44.281Z,31.50
2018-07-28T08:50:47.401Z,31.60
2018-07-28T08:55:50.429Z,31.00
2018-07-28T09:00:53.487Z,31.00
2018-07-28T09:05:57.008Z,30.80
2018-07-28T09:11:00.137Z,30.80
2018-07-28T09:16:03.215Z,31.00
2018-07-28T09:21:06.777Z,31.00
2018-07-28T09:26:09.935Z,31.20
2018-07-28T09:31:13.062Z,31.00
2018-07-28T09:46:22.248Z,31.10
2018-07-28T09:51:25.305Z,31.10
2018-07-28T09:56:28.421Z,31.30
2018-07-28T10:01:31.528Z,31.20
2018-07-28T10:06:34.705Z,31.00
2018-07-28T10:11:37.806Z,31.00
2018-07-28T10:16:40.924Z,30.80
2018-07-28T10:21:44.172Z,30.70
2018-07-28T10:26:47.552Z,30.70
2018-07-28T10:31:50.985Z,30.90
2018-07-28T10:36:54.388Z,30.70
2018-07-28T10:41:57.493Z,30.90
2018-07-28T10:47:00.676Z,31.10
2018-07-28T10:57:08.908Z,31.30
2018-07-28T11:02:12.025Z,31.20
2018-07-28T11:07:15.471Z,30.80
2018-07-28T11:12:18.532Z,30.40
2018-07-28T11:17:21.653Z,30.60
2018-07-28T11:22:24.709Z,30.40
2018-07-28T11:27:27.793Z,30.20
2018-07-28T11:32:42.383Z,30.40
2018-07-28T11:38:00.948Z,30.80
2018-07-28T11:43:15.468Z,31.20
2018-07-28T11:48:18.524Z,31.20
2018-07-28T11:53:21.554Z,31.20
2018-07-28T11:58:24.790Z,31.70
2018-07-28T12:03:28.766Z,31.50
2018-07-28T12:08:31.874Z,31.50
2018-07-28T12:13:35.028Z,31.50
2018-07-28T12:18:38.221Z,31.90
2018-07-28T12:23:41.938Z,31.90
2018-07-28T12:28:45.013Z,32.10
2018-07-28T12:33:49.293Z,31.70
2018-07-28T12:38:52.392Z,31.70
2018-07-28T12:43:55.610Z,31.60
2018-07-28T12:48:58.769Z,31.50
2018-07-28T12:54:02.030Z,31.70
2018-07-28T12:59:05.312Z,31.60
2018-07-28T13:04:08.619Z,31.50
2018-07-28T13:09:12.603Z,31.40
2018-07-28T13:14:15.726Z,31.00
2018-07-28T13:19:18.883Z,31.20
2018-07-28T13:24:21.986Z,31.30
2018-07-28T13:29:25.051Z,31.40
2018-07-28T13:34:28.168Z,31.50
2018-07-28T13:39:31.306Z,31.60
2018-07-28T13:44:34.397Z,31.60
2018-07-28T13:49:37.441Z,31.50
2018-07-28T13:54:40.550Z,31.50
2018-07-28T13:59:43.616Z,31.30
2018-07-28T14:04:46.752Z,31.20
2018-07-28T14:09:49.920Z,31.10
2018-07-28T14:14:53.184Z,31.00
2018-07-28T14:19:56.319Z,30.80
2018-07-28T14:24:59.551Z,30.90
2018-07-28T14:30:02.578Z,31.10
2018-07-28T14:35:05.849Z,31.40
2018-07-28T14:40:08.895Z,31.70
2018-07-28T14:45:12.445Z,31.90
2018-07-28T14:50:15.548Z,31.80
2018-07-28T14:55:18.630Z,31.60
2018-07-28T15:00:21.743Z,31.60
2018-07-28T15:05:25.007Z,31.50
2018-07-28T15:10:28.207Z,31.50
2018-07-28T15:15:31.336Z,31.60
2018-07-28T15:20:34.444Z,31.70
2018-07-28T15:25:37.503Z,31.90
2018-07-28T15:30:40.561Z,31.80
2018-07-28T15:35:43.679Z,31.70
2018-07-28T15:40:47.075Z,31.80
2018-07-28T15:45:50.208Z,31.80
2018-07-28T15:50:54.371Z,31.90
2018-07-28T15:55:57.419Z,31.90
2018-07-28T16:01:00.542Z,32.00
2018-07-28T16:06:03.767Z,31.90
2018-07-28T16:11:06.751Z,31.90
2018-07-28T16:16:09.929Z,31.80
2018-07-28T16:21:13.011Z,31.80
2018-07-28T16:26:16.076Z,31.80
2018-07-28T16:31:19.149Z,31.70
2018-07-28T16:36:22.261Z,31.70
2018-07-28T16:41:25.402Z,31.70
2018-07-28T16:46:28.531Z,31.50
2018-07-28T16:51:31.612Z,31.40
2018-07-28T16:56:34.720Z,31.20
2018-07-28T17:01:37.746Z,31.10
2018-07-28T17:06:40.853Z,31.00
2018-07-28T17:11:44.065Z,31.00
2018-07-28T17:16:47.200Z,30.90
2018-07-28T17:21:50.291Z,30.80
2018-07-28T17:26:53.393Z,30.70
2018-07-28T17:31:57.516Z,30.60
2018-07-28T17:37:00.764Z,30.40
2018-07-28T17:42:03.960Z,30.30
2018-07-28T17:47:07.249Z,29.90
2018-07-28T17:52:10.767Z,28.90
2018-07-28T17:57:13.860Z,27.90
2018-07-28T18:02:16.876Z,27.40
2018-07-28T18:07:19.944Z,27.10
2018-07-28T18:12:23.074Z,26.70
2018-07-28T18:17:26.245Z,26.50
2018-07-28T18:22:29.320Z,26.30
2018-07-28T18:27:32.421Z,26.10
2018-07-28T18:32:35.672Z,26.10
2018-07-28T18:37:39.002Z,26.00
2018-07-28T18:42:42.087Z,26.00
2018-07-28T18:47:45.204Z,25.90
2018-07-28T18:52:48.315Z,25.50
2018-07-28T18:57:51.417Z,24.90
2018-07-28T19:02:54.577Z,24.30
2018-07-28T19:07:57.652Z,24.20
2018-07-28T19:13:06.153Z,23.90
2018-07-28T19:18:14.896Z,23.70
2018-07-28T19:23:23.529Z,23.50
2018-07-28T19:28:32.161Z,23.50
2018-07-28T19:33:35.246Z,23.50
2018-07-28T19:38:38.370Z,23.50
2018-07-28T19:43:41.481Z,23.60
2018-07-28T19:48:44.573Z,23.70
2018-07-28T19:53:47.812Z,23.80
2018-07-28T19:58:50.886Z,23.80
2018-07-28T20:03:54.084Z,23.70
2018-07-28T20:08:57.245Z,23.70
2018-07-28T20:14:00.578Z,23.50
2018-07-28T20:19:03.810Z,23.40
2018-07-28T20:24:07.103Z,23.40
2018-07-28T20:29:10.540Z,23.20
2018-07-28T20:34:13.641Z,23.20
2018-07-28T20:39:16.735Z,23.10
2018-07-28T20:44:19.764Z,23.10
2018-07-28T20:49:22.883Z,23.10
2018-07-28T20:59:28.991Z,23.00
2018-07-28T21:04:32.014Z,23.00
2018-07-28T21:09:35.083Z,23.00
2018-07-28T21:14:38.143Z,23.00
2018-07-28T21:19:41.262Z,23.00
2018-07-28T21:24:44.344Z,22.90
2018-07-28T21:29:47.485Z,22.80
2018-07-28T21:35:21.759Z,22.80
2018-07-28T21:40:24.898Z,22.80
2018-07-28T21:45:28.075Z,22.80
2018-07-28T21:50:31.218Z,22.80
2018-07-28T21:55:34.315Z,22.80
2018-07-28T22:00:42.914Z,22.70
2018-07-28T22:05:46.047Z,22.70
2018-07-28T22:10:49.089Z,22.60
2018-07-28T22:15:52.177Z,22.70
2018-07-28T22:20:55.342Z,22.70
2018-07-28T22:25:58.836Z,22.70
2018-07-28T22:31:02.020Z,22.60
2018-07-28T22:36:05.073Z,22.70
2018-07-28T22:41:08.203Z,22.70
2018-07-28T22:46:11.381Z,22.80
2018-07-28T22:51:14.409Z,22.80
2018-07-28T22:56:17.505Z,22.80
2018-07-28T23:01:20.719Z,22.80
2018-07-28T23:06:23.710Z,22.80
2018-07-28T23:11:26.980Z,22.80
2018-07-28T23:21:32.976Z,22.70
2018-07-28T23:26:36.074Z,22.60
2018-07-28T23:31:39.129Z,22.60
2018-07-28T23:36:42.195Z,22.50
2018-07-28T23:41:45.306Z,22.40
2018-07-28T23:46:48.527Z,22.40
2018-07-28T23:51:51.588Z,22.30
